sensor_id;sensor_type;location;lat;lon;timestamp;P1;durP1;ratioP1;P2;durP2;ratioP2
45650;SDS011;31365;48.858;8.530;2022-10-16T00:01:43;3.10;;;1.80;;
45650;SDS011;31365;48.858;8.530;2022-10-16T00:04:12;1.43;;;1.23;;
45650;SDS011;31365;48.858;8.530;2022-10-16T00:06:42;3.33;;;1.40;;
45650;SDS011;31365;48.858;8.530;2022-10-16T00:09:10;3.93;;;1.47;;
45650;SDS011;31365;48.858;8.530;2022-10-16T00:11:39;2.17;;;1.33;;
45650;SDS011;31365;48.858;8.530;2022-10-16T00:14:10;3.60;;;1.60;;
45650;SDS011;31365;48.858;8.530;2022-10-16T00:16:41;2.28;;;0.90;;
45650;SDS011;31365;48.858;8.530;2022-10-16T00:19:10;1.38;;;0.95;;
45650;SDS011;31365;48.858;8.530;2022-10-16T00:21:39;2.40;;;1.07;;
45650;SDS011;31365;48.858;8.530;2022-10-16T00:24:10;1.20;;;1.10;;
45650;SDS011;31365;48.858;8.530;2022-10-16T00:26:39;0.80;;;0.80;;
45650;SDS011;31365;48.858;8.530;2022-10-16T00:29:08;1.03;;;0.93;;
45650;SDS011;31365;48.858;8.530;2022-10-16T00:31:36;1.20;;;1.10;;
45650;SDS011;31365;48.858;8.530;2022-10-16T00:34:05;1.33;;;1.10;;
45650;SDS011;31365;48.858;8.530;2022-10-16T00:36:34;2.27;;;0.93;;
45650;SDS011;31365;48.858;8.530;2022-10-16T00:39:03;1.13;;;0.85;;
45650;SDS011;31365;48.858;8.530;2022-10-16T00:41:33;0.63;;;0.63;;
45650;SDS011;31365;48.858;8.530;2022-10-16T00:44:02;2.23;;;1.27;;
45650;SDS011;31365;48.858;8.530;2022-10-16T00:47:13;0.70;;;0.70;;
45650;SDS011;31365;48.858;8.530;2022-10-16T00:49:48;0.90;;;0.80;;
45650;SDS011;31365;48.858;8.530;2022-10-16T00:52:19;1.83;;;1.00;;
45650;SDS011;31365;48.858;8.530;2022-10-16T00:54:48;0.80;;;0.80;;
45650;SDS011;31365;48.858;8.530;2022-10-16T00:57:19;4.53;;;1.20;;
45650;SDS011;31365;48.858;8.530;2022-10-16T00:59:50;1.95;;;0.73;;
45650;SDS011;31365;48.858;8.530;2022-10-16T01:02:19;1.20;;;1.10;;
45650;SDS011;31365;48.858;8.530;2022-10-16T01:04:48;1.63;;;1.00;;
45650;SDS011;31365;48.858;8.530;2022-10-16T01:07:22;2.07;;;1.00;;
45650;SDS011;31365;48.858;8.530;2022-10-16T01:10:06;0.80;;;0.80;;
45650;SDS011;31365;48.858;8.530;2022-10-16T01:12:46;1.33;;;1.00;;
45650;SDS011;31365;48.858;8.530;2022-10-16T01:15:24;2.50;;;1.20;;
45650;SDS011;31365;48.858;8.530;2022-10-16T01:18:03;2.17;;;1.43;;
45650;SDS011;31365;48.858;8.530;2022-10-16T01:20:39;3.30;;;1.43;;
45650;SDS011;31365;48.858;8.530;2022-10-16T01:23:21;1.57;;;1.47;;
45650;SDS011;31365;48.858;8.530;2022-10-16T01:26:20;1.60;;;1.50;;
45650;SDS011;31365;48.858;8.530;2022-10-16T01:29:07;2.60;;;1.45;;
45650;SDS011;31365;48.858;8.530;2022-10-16T01:31:45;2.57;;;1.20;;
45650;SDS011;31365;48.858;8.530;2022-10-16T01:34:23;1.80;;;1.00;;
45650;SDS011;31365;48.858;8.530;2022-10-16T01:37:04;1.23;;;1.20;;
45650;SDS011;31365;48.858;8.530;2022-10-16T01:39:44;1.40;;;1.10;;
45650;SDS011;31365;48.858;8.530;2022-10-16T01:42:17;1.87;;;1.00;;
45650;SDS011;31365;48.858;8.530;2022-10-16T01:44:53;1.20;;;1.10;;
45650;SDS011;31365;48.858;8.530;2022-10-16T01:47:24;1.30;;;1.00;;
45650;SDS011;31365;48.858;8.530;2022-10-16T01:49:55;2.35;;;1.05;;
45650;SDS011;31365;48.858;8.530;2022-10-16T01:52:27;1.63;;;1.07;;
45650;SDS011;31365;48.858;8.530;2022-10-16T01:54:56;1.95;;;0.80;;
45650;SDS011;31365;48.858;8.530;2022-10-16T01:57:30;0.65;;;0.65;;
45650;SDS011;31365;48.858;8.530;2022-10-16T02:00:04;2.37;;;0.93;;
45650;SDS011;31365;48.858;8.530;2022-10-16T02:02:39;3.30;;;0.70;;
45650;SDS011;31365;48.858;8.530;2022-10-16T02:05:14;0.80;;;0.67;;
45650;SDS011;31365;48.858;8.530;2022-10-16T02:07:49;0.87;;;0.73;;
45650;SDS011;31365;48.858;8.530;2022-10-16T02:10:18;2.60;;;1.00;;
45650;SDS011;31365;48.858;8.530;2022-10-16T02:12:47;1.27;;;1.10;;
45650;SDS011;31365;48.858;8.530;2022-10-16T02:15:25;1.50;;;0.67;;
45650;SDS011;31365;48.858;8.530;2022-10-16T02:17:53;2.40;;;0.70;;
45650;SDS011;31365;48.858;8.530;2022-10-16T02:20:22;1.73;;;0.50;;
45650;SDS011;31365;48.858;8.530;2022-10-16T02:22:56;0.90;;;0.70;;
45650;SDS011;31365;48.858;8.530;2022-10-16T02:25:27;1.23;;;0.80;;
45650;SDS011;31365;48.858;8.530;2022-10-16T02:28:03;1.57;;;0.87;;
45650;SDS011;31365;48.858;8.530;2022-10-16T02:30:41;1.80;;;1.00;;
45650;SDS011;31365;48.858;8.530;2022-10-16T02:33:14;1.85;;;0.82;;
45650;SDS011;31365;48.858;8.530;2022-10-16T02:35:46;2.03;;;0.73;;
45650;SDS011;31365;48.858;8.530;2022-10-16T02:38:18;1.23;;;0.83;;
45650;SDS011;31365;48.858;8.530;2022-10-16T02:40:48;0.77;;;0.77;;
45650;SDS011;31365;48.858;8.530;2022-10-16T02:43:17;1.40;;;0.83;;
45650;SDS011;31365;48.858;8.530;2022-10-16T02:45:48;2.00;;;0.70;;
45650;SDS011;31365;48.858;8.530;2022-10-16T02:48:16;1.83;;;0.60;;
45650;SDS011;31365;48.858;8.530;2022-10-16T02:50:44;2.07;;;0.90;;
45650;SDS011;31365;48.858;8.530;2022-10-16T02:53:13;2.67;;;1.03;;
45650;SDS011;31365;48.858;8.530;2022-10-16T02:55:41;2.40;;;0.87;;
45650;SDS011;31365;48.858;8.530;2022-10-16T02:58:09;1.67;;;0.67;;
45650;SDS011;31365;48.858;8.530;2022-10-16T03:00:38;0.80;;;0.60;;
45650;SDS011;31365;48.858;8.530;2022-10-16T03:03:08;1.20;;;0.80;;
45650;SDS011;31365;48.858;8.530;2022-10-16T03:05:36;0.80;;;0.60;;
45650;SDS011;31365;48.858;8.530;2022-10-16T03:08:04;1.23;;;0.70;;
45650;SDS011;31365;48.858;8.530;2022-10-16T03:10:33;2.10;;;1.00;;
45650;SDS011;31365;48.858;8.530;2022-10-16T03:13:01;0.80;;;0.80;;
45650;SDS011;31365;48.858;8.530;2022-10-16T03:15:30;2.50;;;0.80;;
45650;SDS011;31365;48.858;8.530;2022-10-16T03:17:58;2.20;;;0.93;;
45650;SDS011;31365;48.858;8.530;2022-10-16T03:20:29;0.77;;;0.77;;
45650;SDS011;31365;48.858;8.530;2022-10-16T03:22:57;2.20;;;0.93;;
45650;SDS011;31365;48.858;8.530;2022-10-16T03:25:26;1.70;;;0.70;;
45650;SDS011;31365;48.858;8.530;2022-10-16T03:27:54;1.83;;;0.73;;
45650;SDS011;31365;48.858;8.530;2022-10-16T03:30:22;1.30;;;0.90;;
45650;SDS011;31365;48.858;8.530;2022-10-16T03:32:51;0.67;;;0.60;;
45650;SDS011;31365;48.858;8.530;2022-10-16T03:35:20;3.33;;;0.80;;
45650;SDS011;31365;48.858;8.530;2022-10-16T03:37:50;2.10;;;0.80;;
45650;SDS011;31365;48.858;8.530;2022-10-16T03:40:19;1.50;;;1.00;;
45650;SDS011;31365;48.858;8.530;2022-10-16T03:42:48;1.00;;;0.90;;
45650;SDS011;31365;48.858;8.530;2022-10-16T03:45:16;3.63;;;0.97;;
45650;SDS011;31365;48.858;8.530;2022-10-16T03:47:44;1.30;;;0.90;;
45650;SDS011;31365;48.858;8.530;2022-10-16T03:50:14;2.80;;;1.00;;
45650;SDS011;31365;48.858;8.530;2022-10-16T03:52:42;3.20;;;0.87;;
45650;SDS011;31365;48.858;8.530;2022-10-16T03:55:12;1.90;;;1.07;;
45650;SDS011;31365;48.858;8.530;2022-10-16T03:57:45;1.70;;;0.85;;
45650;SDS011;31365;48.858;8.530;2022-10-16T04:00:14;1.20;;;1.10;;
45650;SDS011;31365;48.858;8.530;2022-10-16T04:02:43;3.77;;;1.10;;
45650;SDS011;31365;48.858;8.530;2022-10-16T04:05:16;1.77;;;1.00;;
45650;SDS011;31365;48.858;8.530;2022-10-16T04:07:44;1.97;;;0.73;;
45650;SDS011;31365;48.858;8.530;2022-10-16T04:10:14;3.37;;;1.10;;
45650;SDS011;31365;48.858;8.530;2022-10-16T04:12:43;3.70;;;1.20;;
45650;SDS011;31365;48.858;8.530;2022-10-16T04:15:12;0.94;;;0.86;;
45650;SDS011;31365;48.858;8.530;2022-10-16T04:17:40;1.73;;;1.00;;
45650;SDS011;31365;48.858;8.530;2022-10-16T04:20:08;1.20;;;1.03;;
45650;SDS011;31365;48.858;8.530;2022-10-16T04:22:36;1.97;;;1.23;;
45650;SDS011;31365;48.858;8.530;2022-10-16T04:25:05;1.80;;;1.40;;
45650;SDS011;31365;48.858;8.530;2022-10-16T04:27:36;2.80;;;1.33;;
45650;SDS011;31365;48.858;8.530;2022-10-16T04:30:10;3.07;;;1.10;;
45650;SDS011;31365;48.858;8.530;2022-10-16T04:32:39;2.27;;;1.67;;
45650;SDS011;31365;48.858;8.530;2022-10-16T04:35:07;2.10;;;1.90;;
45650;SDS011;31365;48.858;8.530;2022-10-16T04:37:36;4.87;;;1.70;;
45650;SDS011;31365;48.858;8.530;2022-10-16T04:40:05;1.50;;;1.40;;
45650;SDS011;31365;48.858;8.530;2022-10-16T04:42:35;3.50;;;1.23;;
45650;SDS011;31365;48.858;8.530;2022-10-16T04:45:04;3.23;;;1.10;;
45650;SDS011;31365;48.858;8.530;2022-10-16T04:47:40;2.30;;;1.13;;
45650;SDS011;31365;48.858;8.530;2022-10-16T04:50:08;4.00;;;1.37;;
45650;SDS011;31365;48.858;8.530;2022-10-16T04:52:37;3.80;;;1.30;;
45650;SDS011;31365;48.858;8.530;2022-10-16T04:55:05;1.73;;;1.50;;
45650;SDS011;31365;48.858;8.530;2022-10-16T04:57:36;6.60;;;1.80;;
45650;SDS011;31365;48.858;8.530;2022-10-16T05:00:05;2.23;;;1.70;;
45650;SDS011;31365;48.858;8.530;2022-10-16T05:02:35;1.40;;;1.13;;
45650;SDS011;31365;48.858;8.530;2022-10-16T05:05:04;2.70;;;1.57;;
45650;SDS011;31365;48.858;8.530;2022-10-16T05:07:33;3.77;;;1.17;;
45650;SDS011;31365;48.858;8.530;2022-10-16T05:10:03;1.77;;;1.33;;
45650;SDS011;31365;48.858;8.530;2022-10-16T05:12:32;1.20;;;1.07;;
45650;SDS011;31365;48.858;8.530;2022-10-16T05:15:02;3.10;;;1.10;;
45650;SDS011;31365;48.858;8.530;2022-10-16T05:17:32;2.67;;;1.33;;
45650;SDS011;31365;48.858;8.530;2022-10-16T05:20:05;2.50;;;1.50;;
45650;SDS011;31365;48.858;8.530;2022-10-16T05:22:34;3.77;;;1.27;;
45650;SDS011;31365;48.858;8.530;2022-10-16T05:25:03;5.27;;;1.50;;
45650;SDS011;31365;48.858;8.530;2022-10-16T05:27:32;2.10;;;1.00;;
45650;SDS011;31365;48.858;8.530;2022-10-16T05:30:02;4.60;;;1.03;;
45650;SDS011;31365;48.858;8.530;2022-10-16T05:32:35;3.83;;;2.03;;
45650;SDS011;31365;48.858;8.530;2022-10-16T05:35:03;1.67;;;1.03;;
45650;SDS011;31365;48.858;8.530;2022-10-16T05:37:38;1.33;;;1.17;;
45650;SDS011;31365;48.858;8.530;2022-10-16T05:40:06;1.70;;;1.20;;
45650;SDS011;31365;48.858;8.530;2022-10-16T05:42:36;3.27;;;1.30;;
45650;SDS011;31365;48.858;8.530;2022-10-16T05:45:06;1.40;;;1.30;;
45650;SDS011;31365;48.858;8.530;2022-10-16T05:47:37;5.67;;;1.20;;
45650;SDS011;31365;48.858;8.530;2022-10-16T05:50:06;3.57;;;1.20;;
45650;SDS011;31365;48.858;8.530;2022-10-16T05:52:36;2.47;;;1.10;;
45650;SDS011;31365;48.858;8.530;2022-10-16T05:55:10;6.62;;;1.40;;
45650;SDS011;31365;48.858;8.530;2022-10-16T05:57:38;1.30;;;1.20;;
45650;SDS011;31365;48.858;8.530;2022-10-16T06:00:08;2.17;;;1.40;;
45650;SDS011;31365;48.858;8.530;2022-10-16T06:02:40;2.67;;;1.27;;
45650;SDS011;31365;48.858;8.530;2022-10-16T06:05:08;2.53;;;1.03;;
45650;SDS011;31365;48.858;8.530;2022-10-16T06:07:36;4.17;;;2.37;;
45650;SDS011;31365;48.858;8.530;2022-10-16T06:10:06;1.73;;;1.30;;
45650;SDS011;31365;48.858;8.530;2022-10-16T06:12:35;5.50;;;1.40;;
45650;SDS011;31365;48.858;8.530;2022-10-16T06:15:04;2.70;;;1.60;;
45650;SDS011;31365;48.858;8.530;2022-10-16T06:17:34;1.87;;;1.63;;
45650;SDS011;31365;48.858;8.530;2022-10-16T06:20:03;3.23;;;1.80;;
45650;SDS011;31365;48.858;8.530;2022-10-16T06:22:32;4.67;;;2.00;;
45650;SDS011;31365;48.858;8.530;2022-10-16T06:25:01;2.40;;;2.20;;
45650;SDS011;31365;48.858;8.530;2022-10-16T06:27:29;6.37;;;1.63;;
45650;SDS011;31365;48.858;8.530;2022-10-16T06:29:58;1.47;;;1.37;;
45650;SDS011;31365;48.858;8.530;2022-10-16T06:32:27;4.87;;;1.83;;
45650;SDS011;31365;48.858;8.530;2022-10-16T06:34:56;2.20;;;1.97;;
45650;SDS011;31365;48.858;8.530;2022-10-16T06:37:26;2.77;;;1.77;;
45650;SDS011;31365;48.858;8.530;2022-10-16T06:39:55;4.70;;;2.00;;
45650;SDS011;31365;48.858;8.530;2022-10-16T06:42:23;9.10;;;6.50;;
45650;SDS011;31365;48.858;8.530;2022-10-16T06:44:52;5.33;;;3.47;;
45650;SDS011;31365;48.858;8.530;2022-10-16T06:47:21;3.87;;;2.53;;
45650;SDS011;31365;48.858;8.530;2022-10-16T06:49:49;6.80;;;3.37;;
45650;SDS011;31365;48.858;8.530;2022-10-16T06:52:21;3.80;;;3.30;;
45650;SDS011;31365;48.858;8.530;2022-10-16T06:54:50;6.43;;;3.37;;
45650;SDS011;31365;48.858;8.530;2022-10-16T06:57:18;5.83;;;3.97;;
45650;SDS011;31365;48.858;8.530;2022-10-16T06:59:47;11.13;;;3.63;;
45650;SDS011;31365;48.858;8.530;2022-10-16T07:02:20;6.13;;;3.40;;
45650;SDS011;31365;48.858;8.530;2022-10-16T07:04:49;4.40;;;3.13;;
45650;SDS011;31365;48.858;8.530;2022-10-16T07:07:17;6.33;;;3.27;;
45650;SDS011;31365;48.858;8.530;2022-10-16T07:09:47;4.90;;;3.03;;
45650;SDS011;31365;48.858;8.530;2022-10-16T07:12:16;4.87;;;2.90;;
45650;SDS011;31365;48.858;8.530;2022-10-16T07:14:44;7.73;;;3.10;;
45650;SDS011;31365;48.858;8.530;2022-10-16T07:17:12;3.43;;;2.93;;
45650;SDS011;31365;48.858;8.530;2022-10-16T07:19:40;10.47;;;3.70;;
45650;SDS011;31365;48.858;8.530;2022-10-16T07:22:09;6.37;;;3.57;;
45650;SDS011;31365;48.858;8.530;2022-10-16T07:24:37;5.63;;;4.20;;
45650;SDS011;31365;48.858;8.530;2022-10-16T07:27:07;10.33;;;6.17;;
45650;SDS011;31365;48.858;8.530;2022-10-16T07:29:36;5.13;;;4.63;;
45650;SDS011;31365;48.858;8.530;2022-10-16T07:32:04;5.23;;;4.30;;
45650;SDS011;31365;48.858;8.530;2022-10-16T07:34:33;5.03;;;3.33;;
45650;SDS011;31365;48.858;8.530;2022-10-16T07:37:01;3.60;;;2.20;;
45650;SDS011;31365;48.858;8.530;2022-10-16T07:39:29;2.47;;;1.60;;
45650;SDS011;31365;48.858;8.530;2022-10-16T07:41:58;2.53;;;2.10;;
45650;SDS011;31365;48.858;8.530;2022-10-16T07:44:27;4.30;;;2.10;;
45650;SDS011;31365;48.858;8.530;2022-10-16T07:46:56;1.87;;;1.27;;
45650;SDS011;31365;48.858;8.530;2022-10-16T07:49:24;1.90;;;1.50;;
45650;SDS011;31365;48.858;8.530;2022-10-16T07:51:52;1.75;;;1.58;;
45650;SDS011;31365;48.858;8.530;2022-10-16T07:54:21;2.97;;;1.45;;
45650;SDS011;31365;48.858;8.530;2022-10-16T07:56:49;3.57;;;1.87;;
45650;SDS011;31365;48.858;8.530;2022-10-16T07:59:17;1.83;;;1.55;;
45650;SDS011;31365;48.858;8.530;2022-10-16T08:01:47;2.35;;;1.60;;
45650;SDS011;31365;48.858;8.530;2022-10-16T08:04:17;1.98;;;1.70;;
45650;SDS011;31365;48.858;8.530;2022-10-16T08:06:45;4.63;;;1.73;;
45650;SDS011;31365;48.858;8.530;2022-10-16T08:09:14;4.88;;;1.85;;
45650;SDS011;31365;48.858;8.530;2022-10-16T08:11:42;2.45;;;1.70;;
45650;SDS011;31365;48.858;8.530;2022-10-16T08:14:11;6.50;;;2.00;;
45650;SDS011;31365;48.858;8.530;2022-10-16T08:16:39;1.90;;;1.70;;
45650;SDS011;31365;48.858;8.530;2022-10-16T08:19:08;4.40;;;1.98;;
45650;SDS011;31365;48.858;8.530;2022-10-16T08:21:37;6.05;;;1.67;;
45650;SDS011;31365;48.858;8.530;2022-10-16T08:24:05;3.25;;;1.80;;
45650;SDS011;31365;48.858;8.530;2022-10-16T08:26:34;2.90;;;1.70;;
45650;SDS011;31365;48.858;8.530;2022-10-16T08:29:02;3.72;;;1.83;;
45650;SDS011;31365;48.858;8.530;2022-10-16T08:31:31;1.85;;;1.73;;
45650;SDS011;31365;48.858;8.530;2022-10-16T08:33:59;2.38;;;1.33;;
45650;SDS011;31365;48.858;8.530;2022-10-16T08:36:29;2.90;;;2.17;;
45650;SDS011;31365;48.858;8.530;2022-10-16T08:38:57;2.25;;;2.05;;
45650;SDS011;31365;48.858;8.530;2022-10-16T08:41:33;2.63;;;2.22;;
45650;SDS011;31365;48.858;8.530;2022-10-16T08:44:42;2.22;;;1.90;;
45650;SDS011;31365;48.858;8.530;2022-10-16T08:47:45;1.88;;;1.77;;
45650;SDS011;31365;48.858;8.530;2022-10-16T08:50:28;1.70;;;1.60;;
45650;SDS011;31365;48.858;8.530;2022-10-16T08:53:01;3.90;;;2.00;;
45650;SDS011;31365;48.858;8.530;2022-10-16T08:55:35;2.92;;;2.00;;
45650;SDS011;31365;48.858;8.530;2022-10-16T08:58:11;2.55;;;1.20;;
45650;SDS011;31365;48.858;8.530;2022-10-16T09:00:42;1.98;;;1.45;;
45650;SDS011;31365;48.858;8.530;2022-10-16T09:03:17;2.63;;;1.50;;
45650;SDS011;31365;48.858;8.530;2022-10-16T09:06:04;1.75;;;1.65;;
45650;SDS011;31365;48.858;8.530;2022-10-16T09:08:49;1.75;;;1.42;;
45650;SDS011;31365;48.858;8.530;2022-10-16T09:11:34;3.50;;;1.48;;
45650;SDS011;31365;48.858;8.530;2022-10-16T09:14:17;1.48;;;1.20;;
45650;SDS011;31365;48.858;8.530;2022-10-16T09:17:12;2.80;;;1.40;;
45650;SDS011;31365;48.858;8.530;2022-10-16T09:20:11;2.50;;;1.40;;
45650;SDS011;31365;48.858;8.530;2022-10-16T09:22:52;2.10;;;1.40;;
45650;SDS011;31365;48.858;8.530;2022-10-16T09:25:39;3.10;;;1.27;;
45650;SDS011;31365;48.858;8.530;2022-10-16T09:28:11;3.80;;;1.30;;
45650;SDS011;31365;48.858;8.530;2022-10-16T09:30:39;4.15;;;1.70;;
45650;SDS011;31365;48.858;8.530;2022-10-16T09:33:08;1.98;;;1.40;;
45650;SDS011;31365;48.858;8.530;2022-10-16T09:35:39;1.67;;;1.50;;
45650;SDS011;31365;48.858;8.530;2022-10-16T09:38:20;2.22;;;1.20;;
45650;SDS011;31365;48.858;8.530;2022-10-16T09:40:52;0.98;;;0.98;;
45650;SDS011;31365;48.858;8.530;2022-10-16T09:43:28;1.20;;;1.10;;
45650;SDS011;31365;48.858;8.530;2022-10-16T09:46:07;3.25;;;1.30;;
45650;SDS011;31365;48.858;8.530;2022-10-16T09:48:49;2.60;;;1.35;;
45650;SDS011;31365;48.858;8.530;2022-10-16T09:51:21;4.40;;;1.40;;
45650;SDS011;31365;48.858;8.530;2022-10-16T09:53:57;7.43;;;1.33;;
45650;SDS011;31365;48.858;8.530;2022-10-16T09:56:30;1.73;;;1.30;;
45650;SDS011;31365;48.858;8.530;2022-10-16T09:59:03;3.78;;;1.42;;
45650;SDS011;31365;48.858;8.530;2022-10-16T10:01:40;1.80;;;1.58;;
45650;SDS011;31365;48.858;8.530;2022-10-16T10:04:13;4.85;;;1.38;;
45650;SDS011;31365;48.858;8.530;2022-10-16T10:06:43;1.15;;;1.05;;
45650;SDS011;31365;48.858;8.530;2022-10-16T10:09:15;3.72;;;1.33;;
45650;SDS011;31365;48.858;8.530;2022-10-16T10:11:50;4.90;;;1.70;;
45650;SDS011;31365;48.858;8.530;2022-10-16T10:14:23;2.67;;;1.70;;
45650;SDS011;31365;48.858;8.530;2022-10-16T10:17:13;2.67;;;1.52;;
45650;SDS011;31365;48.858;8.530;2022-10-16T10:19:47;1.98;;;1.58;;
45650;SDS011;31365;48.858;8.530;2022-10-16T10:22:21;5.68;;;1.48;;
45650;SDS011;31365;48.858;8.530;2022-10-16T10:24:56;3.22;;;1.38;;
45650;SDS011;31365;48.858;8.530;2022-10-16T10:27:51;2.97;;;1.38;;
45650;SDS011;31365;48.858;8.530;2022-10-16T10:30:35;8.57;;;1.65;;
45650;SDS011;31365;48.858;8.530;2022-10-16T10:33:15;2.25;;;0.90;;
45650;SDS011;31365;48.858;8.530;2022-10-16T10:35:59;3.95;;;1.63;;
45650;SDS011;31365;48.858;8.530;2022-10-16T10:38:42;2.47;;;1.10;;
45650;SDS011;31365;48.858;8.530;2022-10-16T10:41:21;3.35;;;1.00;;
45650;SDS011;31365;48.858;8.530;2022-10-16T10:44:40;2.40;;;1.42;;
45650;SDS011;31365;48.858;8.530;2022-10-16T10:47:29;4.70;;;1.25;;
45650;SDS011;31365;48.858;8.530;2022-10-16T10:50:18;3.53;;;1.15;;
45650;SDS011;31365;48.858;8.530;2022-10-16T10:52:58;3.55;;;1.38;;
45650;SDS011;31365;48.858;8.530;2022-10-16T10:55:37;4.10;;;1.15;;
45650;SDS011;31365;48.858;8.530;2022-10-16T10:58:27;1.33;;;0.95;;
45650;SDS011;31365;48.858;8.530;2022-10-16T11:01:25;2.42;;;1.30;;
45650;SDS011;31365;48.858;8.530;2022-10-16T11:07:28;4.95;;;1.42;;
45650;SDS011;31365;48.858;8.530;2022-10-16T11:10:03;1.38;;;1.10;;
45650;SDS011;31365;48.858;8.530;2022-10-16T11:12:42;2.70;;;1.10;;
45650;SDS011;31365;48.858;8.530;2022-10-16T11:15:17;1.20;;;1.10;;
45650;SDS011;31365;48.858;8.530;2022-10-16T11:17:54;2.70;;;1.35;;
45650;SDS011;31365;48.858;8.530;2022-10-16T11:20:33;5.47;;;1.55;;
45650;SDS011;31365;48.858;8.530;2022-10-16T11:23:10;3.05;;;1.48;;
45650;SDS011;31365;48.858;8.530;2022-10-16T11:25:46;4.78;;;1.33;;
45650;SDS011;31365;48.858;8.530;2022-10-16T11:28:18;2.83;;;1.38;;
45650;SDS011;31365;48.858;8.530;2022-10-16T11:30:57;6.30;;;1.20;;
45650;SDS011;31365;48.858;8.530;2022-10-16T11:33:36;2.45;;;1.40;;
45650;SDS011;31365;48.858;8.530;2022-10-16T11:36:12;3.40;;;1.45;;
45650;SDS011;31365;48.858;8.530;2022-10-16T11:38:50;3.45;;;1.10;;
45650;SDS011;31365;48.858;8.530;2022-10-16T11:41:27;1.52;;;1.10;;
45650;SDS011;31365;48.858;8.530;2022-10-16T11:44:16;3.60;;;1.13;;
45650;SDS011;31365;48.858;8.530;2022-10-16T11:47:06;3.13;;;1.23;;
45650;SDS011;31365;48.858;8.530;2022-10-16T11:50:17;4.00;;;1.20;;
45650;SDS011;31365;48.858;8.530;2022-10-16T11:52:53;4.25;;;1.38;;
45650;SDS011;31365;48.858;8.530;2022-10-16T11:55:31;4.97;;;1.25;;
45650;SDS011;31365;48.858;8.530;2022-10-16T11:58:13;1.27;;;1.17;;
45650;SDS011;31365;48.858;8.530;2022-10-16T12:00:56;1.73;;;0.85;;
45650;SDS011;31365;48.858;8.530;2022-10-16T12:03:39;2.42;;;1.42;;
45650;SDS011;31365;48.858;8.530;2022-10-16T12:06:25;2.67;;;1.30;;
45650;SDS011;31365;48.858;8.530;2022-10-16T12:09:01;4.30;;;1.33;;
45650;SDS011;31365;48.858;8.530;2022-10-16T12:11:32;4.07;;;1.45;;
45650;SDS011;31365;48.858;8.530;2022-10-16T12:14:05;2.45;;;1.33;;
45650;SDS011;31365;48.858;8.530;2022-10-16T12:16:51;3.90;;;1.10;;
45650;SDS011;31365;48.858;8.530;2022-10-16T12:19:22;1.42;;;1.05;;
45650;SDS011;31365;48.858;8.530;2022-10-16T12:21:55;3.15;;;1.45;;
45650;SDS011;31365;48.858;8.530;2022-10-16T12:24:35;1.83;;;1.25;;
45650;SDS011;31365;48.858;8.530;2022-10-16T12:27:24;1.38;;;1.27;;
45650;SDS011;31365;48.858;8.530;2022-10-16T12:29:58;1.63;;;1.48;;
45650;SDS011;31365;48.858;8.530;2022-10-16T12:32:30;1.73;;;1.30;;
45650;SDS011;31365;48.858;8.530;2022-10-16T12:35:18;1.85;;;1.42;;
45650;SDS011;31365;48.858;8.530;2022-10-16T12:37:51;2.15;;;1.40;;
45650;SDS011;31365;48.858;8.530;2022-10-16T12:40:25;2.22;;;1.48;;
45650;SDS011;31365;48.858;8.530;2022-10-16T12:42:58;4.88;;;1.50;;
45650;SDS011;31365;48.858;8.530;2022-10-16T12:45:28;2.47;;;1.77;;
45650;SDS011;31365;48.858;8.530;2022-10-16T12:47:58;4.10;;;2.60;;
45650;SDS011;31365;48.858;8.530;2022-10-16T12:50:31;8.20;;;2.40;;
45650;SDS011;31365;48.858;8.530;2022-10-16T12:53:17;3.53;;;1.60;;
45650;SDS011;31365;48.858;8.530;2022-10-16T12:55:52;3.80;;;2.35;;
45650;SDS011;31365;48.858;8.530;2022-10-16T12:58:40;5.95;;;2.75;;
45650;SDS011;31365;48.858;8.530;2022-10-16T13:01:40;6.43;;;3.53;;
45650;SDS011;31365;48.858;8.530;2022-10-16T13:04:25;4.03;;;3.13;;
45650;SDS011;31365;48.858;8.530;2022-10-16T13:07:30;3.10;;;2.17;;
45650;SDS011;31365;48.858;8.530;2022-10-16T13:10:19;2.17;;;1.60;;
45650;SDS011;31365;48.858;8.530;2022-10-16T13:13:02;2.90;;;2.25;;
45650;SDS011;31365;48.858;8.530;2022-10-16T13:15:52;1.73;;;1.63;;
45650;SDS011;31365;48.858;8.530;2022-10-16T13:18:38;2.90;;;2.03;;
45650;SDS011;31365;48.858;8.530;2022-10-16T13:21:27;5.53;;;1.92;;
45650;SDS011;31365;48.858;8.530;2022-10-16T13:24:10;7.82;;;3.60;;
45650;SDS011;31365;48.858;8.530;2022-10-16T13:26:56;5.72;;;1.98;;
45650;SDS011;31365;48.858;8.530;2022-10-16T13:29:34;4.55;;;2.28;;
45650;SDS011;31365;48.858;8.530;2022-10-16T13:32:07;3.45;;;1.67;;
45650;SDS011;31365;48.858;8.530;2022-10-16T13:34:43;10.25;;;2.65;;
45650;SDS011;31365;48.858;8.530;2022-10-16T13:37:16;3.55;;;1.77;;
45650;SDS011;31365;48.858;8.530;2022-10-16T13:39:48;3.40;;;2.10;;
45650;SDS011;31365;48.858;8.530;2022-10-16T13:42:21;2.17;;;1.63;;
45650;SDS011;31365;48.858;8.530;2022-10-16T13:44:55;8.13;;;1.63;;
45650;SDS011;31365;48.858;8.530;2022-10-16T13:47:24;4.40;;;1.73;;
45650;SDS011;31365;48.858;8.530;2022-10-16T13:49:59;3.63;;;1.60;;
45650;SDS011;31365;48.858;8.530;2022-10-16T13:52:29;4.65;;;1.48;;
45650;SDS011;31365;48.858;8.530;2022-10-16T13:54:58;4.63;;;1.73;;
45650;SDS011;31365;48.858;8.530;2022-10-16T13:57:29;8.32;;;2.00;;
45650;SDS011;31365;48.858;8.530;2022-10-16T13:59:57;4.95;;;1.48;;
45650;SDS011;31365;48.858;8.530;2022-10-16T14:02:26;3.65;;;1.98;;
45650;SDS011;31365;48.858;8.530;2022-10-16T14:05:01;4.30;;;1.70;;
45650;SDS011;31365;48.858;8.530;2022-10-16T14:07:32;4.25;;;1.70;;
45650;SDS011;31365;48.858;8.530;2022-10-16T14:10:03;6.38;;;1.67;;
45650;SDS011;31365;48.858;8.530;2022-10-16T14:12:36;6.55;;;1.58;;
45650;SDS011;31365;48.858;8.530;2022-10-16T14:15:04;4.20;;;1.55;;
45650;SDS011;31365;48.858;8.530;2022-10-16T14:17:45;5.93;;;1.80;;
45650;SDS011;31365;48.858;8.530;2022-10-16T14:20:20;4.80;;;1.73;;
45650;SDS011;31365;48.858;8.530;2022-10-16T14:23:00;1.85;;;1.73;;
45650;SDS011;31365;48.858;8.530;2022-10-16T14:25:32;4.13;;;2.25;;
45650;SDS011;31365;48.858;8.530;2022-10-16T14:28:03;7.95;;;4.82;;
45650;SDS011;31365;48.858;8.530;2022-10-16T14:30:51;8.60;;;7.57;;
45650;SDS011;31365;48.858;8.530;2022-10-16T14:33:22;10.80;;;7.95;;
45650;SDS011;31365;48.858;8.530;2022-10-16T14:36:01;4.45;;;3.10;;
45650;SDS011;31365;48.858;8.530;2022-10-16T14:38:33;4.85;;;2.35;;
45650;SDS011;31365;48.858;8.530;2022-10-16T14:41:01;3.47;;;2.90;;
45650;SDS011;31365;48.858;8.530;2022-10-16T14:43:34;6.40;;;4.40;;
45650;SDS011;31365;48.858;8.530;2022-10-16T14:46:07;6.10;;;5.50;;
45650;SDS011;31365;48.858;8.530;2022-10-16T14:48:41;9.18;;;7.85;;
45650;SDS011;31365;48.858;8.530;2022-10-16T14:51:14;7.95;;;7.25;;
45650;SDS011;31365;48.858;8.530;2022-10-16T14:53:43;19.00;;;10.23;;
45650;SDS011;31365;48.858;8.530;2022-10-16T14:56:14;7.32;;;6.07;;
45650;SDS011;31365;48.858;8.530;2022-10-16T14:58:48;9.73;;;5.88;;
45650;SDS011;31365;48.858;8.530;2022-10-16T15:01:19;5.40;;;4.82;;
45650;SDS011;31365;48.858;8.530;2022-10-16T15:03:48;4.80;;;3.33;;
45650;SDS011;31365;48.858;8.530;2022-10-16T15:06:19;3.15;;;2.33;;
45650;SDS011;31365;48.858;8.530;2022-10-16T15:08:47;5.45;;;2.35;;
45650;SDS011;31365;48.858;8.530;2022-10-16T15:11:16;7.55;;;2.42;;
45650;SDS011;31365;48.858;8.530;2022-10-16T15:13:48;3.80;;;2.78;;
45650;SDS011;31365;48.858;8.530;2022-10-16T15:16:17;3.67;;;3.05;;
45650;SDS011;31365;48.858;8.530;2022-10-16T15:18:45;7.22;;;3.67;;
45650;SDS011;31365;48.858;8.530;2022-10-16T15:21:17;4.07;;;3.55;;
45650;SDS011;31365;48.858;8.530;2022-10-16T15:23:53;2.70;;;2.50;;
45650;SDS011;31365;48.858;8.530;2022-10-16T15:26:23;4.45;;;2.35;;
45650;SDS011;31365;48.858;8.530;2022-10-16T15:28:54;4.40;;;2.10;;
45650;SDS011;31365;48.858;8.530;2022-10-16T15:31:23;6.60;;;2.40;;